Time;durP1;ratioP1;P1;durP2;ratioP2;P2;SDS_P1;SDS_P2;PMS_P1;PMS_P2;Temp;Humidity;BMP_temperature;BMP_pressure;BME280_temperature;BME280_humidity;BME280_pressure;Samples;Min_cycle;Max_cycle;Signal;HPM_P1;HPM_P2
2022/10/04 00:02:16;;;;;;;6.38;2.70;;;22.30;51.50;;;;;;5062242;28;20052;-44
2022/10/04 00:04:51;;;;;;;4.60;2.97;;;22.30;51.60;;;;;;5058729;28;20554;-46
2022/10/04 00:07:23;;;;;;;3.80;3.50;;;22.30;51.50;;;;;;5053359;28;20065;-46
2022/10/04 00:09:54;;;;;;;6.13;2.78;;;22.30;51.40;;;;;;5050685;28;20061;-46
2022/10/04 00:12:24;;;;;;;2.55;2.13;;;22.30;51.40;;;;;;5055246;28;20519;-44
2022/10/04 00:14:52;;;;;;;4.88;2.83;;;22.30;51.30;;;;;;5050274;28;20123;-47
2022/10/04 00:17:24;;;;;;;6.82;2.85;;;22.30;51.30;;;;;;5063772;28;20036;-45
2022/10/04 00:19:54;;;;;;;3.75;3.17;;;22.30;51.20;;;;;;5062585;28;20477;-44
2022/10/04 00:22:26;;;;;;;5.45;3.15;;;22.20;51.20;;;;;;5052797;28;20075;-45
2022/10/04 00:25:20;;;;;;;2.88;2.65;;;22.20;51.10;;;;;;5068100;28;20428;-46
2022/10/04 00:28:24;;;;;;;4.88;3.10;;;22.30;51.10;;;;;;5051990;28;20049;-44
2022/10/04 00:31:25;;;;;;;3.97;2.53;;;22.20;51.10;;;;;;5067390;28;20041;-47
2022/10/04 00:33:55;;;;;;;3.38;2.40;;;22.20;51.00;;;;;;5024828;28;20045;-45
2022/10/04 00:36:40;;;;;;;3.20;2.95;;;22.20;51.10;;;;;;5024974;28;20187;-45
2022/10/04 00:39:38;;;;;;;3.95;3.13;;;22.20;51.00;;;;;;5000519;28;20467;-44
2022/10/04 00:42:26;;;;;;;5.25;3.20;;;22.20;51.00;;;;;;5006084;28;20049;-45
2022/10/04 00:44:58;;;;;;;3.10;2.80;;;22.20;51.00;;;;;;5003291;28;20053;-46
2022/10/04 00:47:31;;;;;;;6.32;2.55;;;22.20;51.00;;;;;;5022106;28;20183;-45
2022/10/04 00:50:11;;;;;;;3.85;3.22;;;22.20;51.00;;;;;;5020788;28;20053;-45
2022/10/04 00:52:45;;;;;;;6.15;3.33;;;22.20;50.90;;;;;;5015129;28;20124;-45
2022/10/04 00:55:25;;;;;;;5.05;3.63;;;22.10;50.90;;;;;;5016482;28;20140;-45
2022/10/04 00:57:58;;;;;;;5.88;2.72;;;22.20;50.90;;;;;;4970103;28;20133;-45
2022/10/04 01:00:26;;;;;;;2.45;2.25;;;22.10;50.80;;;;;;5023498;28;20171;-46
2022/10/04 01:02:58;;;;;;;2.33;1.92;;;22.10;50.80;;;;;;5024767;28;20049;-45
2022/10/04 01:05:30;;;;;;;4.32;3.15;;;22.10;50.80;;;;;;5054360;28;20428;-44
2022/10/04 01:08:05;;;;;;;3.38;2.17;;;22.10;50.70;;;;;;5046414;28;20582;-45
2022/10/04 01:10:36;;;;;;;5.38;2.30;;;22.10;50.70;;;;;;5057640;28;20154;-44
2022/10/04 01:13:10;;;;;;;5.63;2.95;;;22.10;50.70;;;;;;5067293;28;20529;-44
2022/10/04 01:15:44;;;;;;;3.95;3.10;;;22.10;50.60;;;;;;5066991;28;20539;-45
2022/10/04 01:18:14;;;;;;;2.80;2.22;;;22.10;51.20;;;;;;5059383;28;20051;-45
2022/10/04 01:20:53;;;;;;;6.88;2.50;;;22.10;50.60;;;;;;5066894;28;20037;-45
2022/10/04 01:23:43;;;;;;;3.53;2.45;;;22.10;50.60;;;;;;5051801;28;20056;-45
2022/10/04 01:26:46;;;;;;;5.05;3.28;;;22.10;50.50;;;;;;5052626;28;20041;-45
2022/10/04 01:29:16;;;;;;;5.78;2.38;;;22.00;50.50;;;;;;5044113;28;20525;-45
2022/10/04 01:31:44;;;;;;;1.88;1.77;;;22.00;50.60;;;;;;5051415;28;20071;-45
2022/10/04 01:34:14;;;;;;;3.88;2.53;;;22.00;50.60;;;;;;5048424;28;20501;-44
2022/10/04 01:36:43;;;;;;;4.30;2.65;;;22.00;50.50;;;;;;5057603;28;20041;-47
2022/10/04 01:39:13;;;;;;;4.25;3.17;;;22.00;50.50;;;;;;5067777;28;20142;-45
2022/10/04 01:41:47;;;;;;;3.38;2.55;;;22.00;50.50;;;;;;5070996;28;20058;-45
2022/10/04 01:44:25;;;;;;;3.22;2.92;;;22.00;50.50;;;;;;5061225;28;20513;-45
2022/10/04 01:46:54;;;;;;;2.63;2.42;;;22.00;50.50;;;;;;5051873;28;20037;-46
2022/10/04 01:49:26;;;;;;;4.82;2.67;;;21.90;50.40;;;;;;5044840;28;20045;-45
2022/10/04 01:51:58;;;;;;;2.72;2.47;;;21.90;50.40;;;;;;5051356;28;20067;-46
2022/10/04 01:54:34;;;;;;;4.00;2.10;;;22.00;50.50;;;;;;5051972;28;20041;-44
2022/10/04 01:57:07;;;;;;;2.72;2.35;;;21.90;50.40;;;;;;5070083;28;20044;-45
2022/10/04 01:59:40;;;;;;;4.18;2.20;;;21.90;50.50;;;;;;5070307;28;20043;-44
2022/10/04 02:02:15;;;;;;;3.03;2.60;;;21.90;50.50;;;;;;5066976;28;20059;-44
2022/10/04 02:04:46;;;;;;;1.90;1.80;;;21.90;50.50;;;;;;5058481;28;20162;-44
2022/10/04 02:07:15;;;;;;;2.03;1.80;;;21.90;50.50;;;;;;5051332;28;20041;-44
2022/10/04 02:09:47;;;;;;;2.00;1.80;;;21.90;50.60;;;;;;5050037;28;20033;-44
2022/10/04 02:12:16;;;;;;;3.28;1.70;;;21.90;50.50;;;;;;5052140;28;20132;-45
2022/10/04 02:14:51;;;;;;;3.83;1.95;;;21.90;50.50;;;;;;5070751;28;20046;-44
2022/10/04 02:17:20;;;;;;;4.83;1.77;;;21.90;50.50;;;;;;5051192;28;20509;-44
2022/10/04 02:19:48;;;;;;;3.10;2.60;;;21.80;50.50;;;;;;5070234;28;20654;-44
2022/10/04 02:22:16;;;;;;;2.55;2.30;;;21.80;50.50;;;;;;5063223;28;20041;-44
2022/10/04 02:24:48;;;;;;;4.45;2.22;;;21.80;50.50;;;;;;5063591;28;20052;-46
2022/10/04 02:27:16;;;;;;;2.95;2.65;;;21.80;50.40;;;;;;5064907;28;20037;-44
2022/10/04 02:29:43;;;;;;;3.28;2.05;;;21.80;50.50;;;;;;5051059;28;20033;-45
2022/10/04 02:34:58;;;;;;;3.08;2.40;;;21.80;50.50;;;;;;5052581;28;20037;-44
2022/10/04 02:37:28;;;;;;;3.95;2.35;;;21.80;50.60;;;;;;5048726;28;20719;-45
2022/10/04 02:40:04;;;;;;;2.80;2.00;;;21.80;50.50;;;;;;5052145;28;20049;-45
2022/10/04 02:42:40;;;;;;;2.90;1.08;;;21.80;50.50;;;;;;5048237;28;20128;-44
2022/10/04 02:45:16;;;;;;;2.35;1.95;;;21.80;50.50;;;;;;5046542;28;20041;-44
2022/10/04 02:47:44;;;;;;;;;;;21.80;50.50;;;;;;5051773;28;20029;-47
2022/10/04 02:50:23;;;;;;;2.13;1.75;;;21.70;50.40;;;;;;5047067;28;19925;-48
2022/10/04 02:52:57;;;;;;;2.28;1.50;;;21.70;51.60;;;;;;5053769;28;20134;-48
2022/10/04 02:55:29;;;;;;;2.33;2.13;;;21.70;52.70;;;;;;5056753;28;20048;-51
2022/10/04 02:57:58;;;;;;;5.32;1.65;;;21.80;53.20;;;;;;5079622;28;20433;-49
2022/10/04 03:00:26;;;;;;;2.40;1.58;;;21.80;53.50;;;;;;5055848;28;20033;-48
2022/10/04 03:03:14;;;;;;;1.60;1.42;;;21.80;53.80;;;;;;5069755;28;20478;-50
2022/10/04 03:05:43;;;;;;;3.55;1.48;;;21.90;54.00;;;;;;5052303;28;20037;-49
2022/10/04 03:08:10;;;;;;;3.85;1.60;;;21.90;54.10;;;;;;5061231;28;20180;-48
2022/10/04 03:10:41;;;;;;;2.58;1.42;;;21.90;54.10;;;;;;5058165;28;20040;-47
2022/10/04 03:13:09;;;;;;;3.03;1.73;;;22.00;54.20;;;;;;5064171;28;20481;-48
2022/10/04 03:15:36;;;;;;;2.08;1.55;;;22.10;54.20;;;;;;5064817;28;20041;-47
2022/10/04 03:18:03;;;;;;;3.70;1.48;;;22.10;54.10;;;;;;5062262;28;20199;-49
2022/10/04 03:20:30;;;;;;;3.28;1.52;;;22.20;54.00;;;;;;5054802;28;20490;-50
2022/10/04 03:22:58;;;;;;;2.40;2.15;;;22.20;53.90;;;;;;5061794;28;20047;-47
2022/10/04 03:25:30;;;;;;;1.90;1.40;;;22.30;53.80;;;;;;5043899;28;20049;-44
2022/10/04 03:28:01;;;;;;;5.38;1.77;;;22.40;53.50;;;;;;5045872;28;20125;-46
2022/10/04 03:30:30;;;;;;;3.97;1.17;;;22.40;53.30;;;;;;5047859;28;20052;-46
2022/10/04 03:32:58;;;;;;;6.30;1.83;;;22.50;53.20;;;;;;5057461;28;20052;-46
2022/10/04 03:35:30;;;;;;;4.82;1.75;;;22.50;53.30;;;;;;5059668;28;20040;-50
2022/10/04 03:38:01;;;;;;;5.20;0.85;;;22.50;53.20;;;;;;5055594;28;20048;-46
2022/10/04 03:40:32;;;;;;;3.33;1.42;;;22.50;53.30;;;;;;5049393;28;20094;-46
2022/10/04 03:43:02;;;;;;;1.63;1.52;;;22.50;53.10;;;;;;5043943;28;20517;-46
2022/10/04 03:45:31;;;;;;;6.45;2.05;;;22.50;53.20;;;;;;5048885;28;20037;-47
2022/10/04 03:48:04;;;;;;;2.90;1.25;;;22.60;53.30;;;;;;5050658;28;20037;-44
2022/10/04 03:50:35;;;;;;;3.97;1.67;;;22.60;53.40;;;;;;5051552;28;20049;-46
2022/10/04 03:53:07;;;;;;;2.97;1.20;;;22.60;53.40;;;;;;5043628;28;20041;-46
2022/10/04 03:55:39;;;;;;;2.60;1.33;;;22.60;53.60;;;;;;5059040;28;20051;-48
2022/10/04 03:58:11;;;;;;;1.98;1.05;;;22.60;53.70;;;;;;5063071;28;20158;-47
2022/10/04 04:00:43;;;;;;;4.35;1.73;;;22.70;54.40;;;;;;5064363;28;20115;-49
2022/10/04 04:03:19;;;;;;;1.95;1.20;;;22.70;53.80;;;;;;5045107;28;20467;-49
2022/10/04 04:05:51;;;;;;;1.27;1.05;;;22.70;54.10;;;;;;5047259;28;20135;-46
2022/10/04 04:08:26;;;;;;;1.48;0.93;;;22.70;54.30;;;;;;5048820;28;20037;-50
2022/10/04 04:10:57;;;;;;;3.67;1.45;;;22.70;54.40;;;;;;5054701;28;20159;-46
2022/10/04 04:13:30;;;;;;;5.80;1.10;;;22.70;54.50;;;;;;5042114;28;20429;-49
2022/10/04 04:16:01;;;;;;;0.80;0.80;;;22.70;54.70;;;;;;5043211;28;20068;-47
2022/10/04 04:18:32;;;;;;;2.95;1.92;;;22.70;54.80;;;;;;5055674;28;20119;-47
2022/10/04 04:21:01;;;;;;;2.25;1.45;;;22.70;54.80;;;;;;5068069;28;20124;-47
2022/10/04 04:23:32;;;;;;;5.07;1.83;;;22.70;54.80;;;;;;5059676;28;20051;-45
2022/10/04 04:26:13;;;;;;;2.53;1.52;;;22.70;55.60;;;;;;5064856;28;20048;-46
2022/10/04 04:28:47;;;;;;;1.60;1.50;;;22.70;55.50;;;;;;5053298;28;20063;-47
2022/10/04 04:31:20;;;;;;;1.52;1.08;;;22.70;55.40;;;;;;5066424;28;20060;-46
2022/10/04 04:33:55;;;;;;;1.17;0.82;;;22.70;55.80;;;;;;5054345;28;20048;-52
2022/10/04 04:36:22;;;;;;;1.90;0.95;;;22.70;55.80;;;;;;5046940;28;20041;-54
2022/10/04 04:41:40;;;;;;;5.32;1.98;;;22.70;57.10;;;;;;5043690;28;20066;-49
2022/10/04 04:44:17;;;;;;;2.60;1.20;;;22.70;57.30;;;;;;5051060;28;20056;-49
2022/10/04 04:46:45;;;;;;;1.58;1.48;;;22.70;58.20;;;;;;5056599;28;20048;-49
2022/10/04 04:49:15;;;;;;;1.63;1.52;;;22.70;57.70;;;;;;5064336;28;20127;-50
2022/10/04 04:51:48;;;;;;;3.13;1.38;;;22.80;57.90;;;;;;5057742;28;20528;-51
2022/10/04 04:54:17;;;;;;;5.47;1.83;;;22.80;57.90;;;;;;5061007;28;20500;-51
2022/10/04 04:56:47;;;;;;;1.75;1.10;;;22.90;57.90;;;;;;5052568;28;20075;-47
2022/10/04 04:59:17;;;;;;;3.35;1.35;;;22.90;57.70;;;;;;5046466;28;20076;-48
2022/10/04 05:01:45;;;;;;;3.17;1.13;;;23.00;57.60;;;;;;5048195;28;20044;-49
2022/10/04 05:04:20;;;;;;;3.38;0.85;;;23.00;57.30;;;;;;5052373;28;20150;-55
2022/10/04 05:06:49;;;;;;;1.25;0.95;;;23.10;57.10;;;;;;5054628;28;20055;-53
2022/10/04 05:09:23;;;;;;;4.25;1.65;;;23.20;57.00;;;;;;5053003;28;20568;-48
2022/10/04 05:11:53;;;;;;;1.65;1.10;;;23.30;56.80;;;;;;5046324;28;20056;-49
2022/10/04 05:14:22;;;;;;;1.98;1.63;;;23.30;56.60;;;;;;5057110;28;20128;-49
2022/10/04 05:16:50;;;;;;;2.88;1.17;;;23.40;56.40;;;;;;5045967;28;20053;-48
2022/10/04 05:19:21;;;;;;;1.02;0.93;;;23.50;56.30;;;;;;5047080;28;20044;-49
2022/10/04 05:21:51;;;;;;;2.58;1.15;;;23.50;56.20;;;;;;5046480;28;20041;-47
2022/10/04 05:24:23;;;;;;;3.13;1.05;;;23.50;56.00;;;;;;5059325;28;20131;-49
2022/10/04 05:26:52;;;;;;;2.70;0.70;;;23.60;56.00;;;;;;5055864;28;20872;-50
2022/10/04 05:29:25;;;;;;;1.10;1.00;;;23.70;55.90;;;;;;5050103;28;20049;-53
2022/10/04 05:32:00;;;;;;;1.55;0.88;;;23.70;55.70;;;;;;5053410;28;20049;-48
2022/10/04 05:34:30;;;;;;;5.47;1.13;;;23.70;55.60;;;;;;5044345;28;20092;-49
2022/10/04 05:37:21;;;;;;;0.73;0.50;;;23.70;55.60;;;;;;5055781;28;20505;-49
2022/10/04 05:39:55;;;;;;;4.20;1.75;;;23.80;56.10;;;;;;5045286;28;20044;-48
2022/10/04 05:42:28;;;;;;;2.28;1.42;;;23.80;55.40;;;;;;5052339;28;20072;-50
2022/10/04 05:44:57;;;;;;;1.15;0.90;;;23.80;55.40;;;;;;5037897;28;20049;-48
2022/10/04 05:47:28;;;;;;;1.42;1.20;;;23.90;55.30;;;;;;5041246;28;20215;-49
2022/10/04 05:49:57;;;;;;;1.67;0.75;;;23.90;55.30;;;;;;5053345;28;20945;-48
2022/10/04 05:52:32;;;;;;;2.45;0.90;;;23.90;55.20;;;;;;5054636;28;20254;-47
2022/10/04 05:55:18;;;;;;;2.47;0.90;;;23.90;55.10;;;;;;5055997;28;20040;-46
2022/10/04 05:57:57;;;;;;;4.32;1.55;;;23.90;55.10;;;;;;5049156;28;20040;-45
2022/10/04 06:00:33;;;;;;;1.83;1.40;;;23.90;54.60;;;;;;5064201;28;20052;-46
2022/10/04 06:03:24;;;;;;;0.80;0.77;;;24.00;54.30;;;;;;5059987;28;20068;-47
2022/10/04 06:05:55;;;;;;;4.22;1.67;;;24.10;53.90;;;;;;5039478;28;20405;-47
2022/10/04 06:08:36;;;;;;;2.80;0.98;;;24.20;53.50;;;;;;5053389;28;20048;-47
2022/10/04 06:11:09;;;;;;;0.88;0.52;;;24.40;53.10;;;;;;5050218;28;20037;-48
2022/10/04 06:14:02;;;;;;;1.90;0.75;;;24.50;52.80;;;;;;5050837;28;20048;-50
2022/10/04 06:16:47;;;;;;;2.38;0.55;;;24.70;52.30;;;;;;5043486;28;20034;-51
2022/10/04 06:19:34;;;;;;;2.83;1.20;;;24.80;52.50;;;;;;5049681;28;20049;-47
2022/10/04 06:22:13;;;;;;;1.50;0.80;;;24.90;51.50;;;;;;5045320;28;20045;-51
2022/10/04 06:24:43;;;;;;;1.67;0.70;;;25.10;51.20;;;;;;5059379;28;20099;-50
2022/10/04 06:27:14;;;;;;;4.75;1.17;;;25.20;50.70;;;;;;5062906;28;20041;-47
2022/10/04 06:29:47;;;;;;;2.55;1.70;;;25.30;50.30;;;;;;5054253;28;20523;-47
2022/10/04 06:32:43;;;;;;;1.02;0.93;;;25.50;49.80;;;;;;5069521;28;20048;-51
2022/10/04 06:35:26;;;;;;;2.97;0.98;;;25.60;49.50;;;;;;5058008;28;20129;-52
2022/10/04 06:38:30;;;;;;;0.82;0.80;;;25.70;49.20;;;;;;5053925;28;20041;-53
2022/10/04 06:41:14;;;;;;;1.33;1.25;;;25.80;48.80;;;;;;5055291;28;20036;-53
2022/10/04 06:44:04;;;;;;;1.90;1.80;;;25.90;48.60;;;;;;5051191;28;20122;-52
2022/10/04 06:46:41;;;;;;;1.88;0.75;;;25.90;48.20;;;;;;5049809;28;20048;-54
2022/10/04 06:49:33;;;;;;;1.00;0.90;;;25.90;47.80;;;;;;5055660;28;20040;-52
2022/10/04 06:52:32;;;;;;;1.38;0.77;;;25.90;47.50;;;;;;5061117;28;20040;-54
2022/10/04 06:55:25;;;;;;;1.13;1.02;;;25.90;47.30;;;;;;5051102;28;20060;-54
2022/10/04 06:58:24;;;;;;;2.97;1.00;;;25.80;46.90;;;;;;5061700;28;20059;-50
2022/10/04 07:00:56;;;;;;;2.17;1.05;;;25.70;46.80;;;;;;5058766;28;20040;-53
2022/10/04 07:03:28;;;;;;;2.58;1.38;;;25.70;46.80;;;;;;5057188;28;20026;-49
2022/10/04 07:06:02;;;;;;;2.53;1.65;;;25.60;46.60;;;;;;5046556;28;20110;-53
2022/10/04 07:08:38;;;;;;;3.78;1.23;;;25.60;46.50;;;;;;5068730;28;20219;-52
2022/10/04 07:11:12;;;;;;;3.17;1.13;;;25.50;46.30;;;;;;5062492;28;20481;-48
2022/10/04 07:13:47;;;;;;;3.25;1.35;;;25.50;46.50;;;;;;5046392;28;20037;-51
2022/10/04 07:16:29;;;;;;;2.77;1.73;;;25.40;46.40;;;;;;5066353;28;20539;-50
2022/10/04 07:19:08;;;;;;;5.80;2.17;;;25.30;46.60;;;;;;5053244;28;20327;-58
2022/10/04 07:21:47;;;;;;;1.23;1.10;;;25.30;46.70;;;;;;5041289;28;20043;-56
2022/10/04 07:24:23;;;;;;;1.55;1.45;;;25.20;46.40;;;;;;5052349;28;20516;-53
2022/10/04 07:26:53;;;;;;;2.22;2.08;;;25.10;46.40;;;;;;5068132;28;20047;-54
2022/10/04 07:29:24;;;;;;;3.28;2.55;;;25.00;46.70;;;;;;5063277;28;20045;-53
2022/10/04 07:32:02;;;;;;;1.92;1.15;;;24.90;46.70;;;;;;5062166;28;20145;-53
2022/10/04 07:34:30;;;;;;;3.42;1.67;;;24.90;46.90;;;;;;5067084;28;20131;-49
2022/10/04 07:37:02;;;;;;;1.38;1.23;;;24.90;47.00;;;;;;5047261;28;20082;-47
2022/10/04 07:39:33;;;;;;;2.55;1.75;;;24.80;47.20;;;;;;5062888;28;20420;-49
2022/10/04 07:42:09;;;;;;;1.80;1.67;;;24.80;47.40;;;;;;5064338;28;20048;-56
2022/10/04 07:44:40;;;;;;;2.55;2.35;;;24.70;47.30;;;;;;5062493;28;20052;-53
2022/10/04 07:47:18;;;;;;;3.63;1.90;;;24.70;47.40;;;;;;5063638;28;20079;-52
2022/10/04 07:49:47;;;;;;;1.77;1.67;;;24.60;47.40;;;;;;5063732;28;20064;-57
2022/10/04 07:52:41;;;;;;;2.90;2.63;;;24.60;47.50;;;;;;5060545;28;20049;-47
2022/10/04 07:55:21;;;;;;;1.88;1.77;;;24.60;47.40;;;;;;5059654;28;20047;-53
2022/10/04 07:57:58;;;;;;;2.97;1.42;;;24.60;47.70;;;;;;5044176;28;20120;-53
2022/10/04 08:00:33;;;;;;;1.90;1.80;;;24.50;47.80;;;;;;5051146;28;20041;-49
2022/10/04 08:03:17;;;;;;;2.43;1.50;;;24.50;47.90;;;;;;5054422;28;20028;-49
2022/10/04 08:05:51;;;;;;;4.63;1.70;;;24.50;48.00;;;;;;5055260;28;20401;-56
2022/10/04 08:08:36;;;;;;;3.47;1.67;;;24.50;48.10;;;;;;5049281;28;20048;-50
2022/10/04 08:11:16;;;;;;;2.37;2.07;;;24.50;48.10;;;;;;5058551;28;20037;-48
2022/10/04 08:13:52;;;;;;;3.05;2.50;;;24.40;48.10;;;;;;5046633;28;20040;-57
2022/10/04 08:16:32;;;;;;;3.20;2.13;;;24.40;48.20;;;;;;5060031;28;20041;-56
2022/10/04 08:19:12;;;;;;;4.63;1.85;;;24.40;48.50;;;;;;5053819;28;20066;-49
2022/10/04 08:21:48;;;;;;;4.60;1.30;;;24.40;48.80;;;;;;5047551;28;20128;-49
2022/10/04 08:24:24;;;;;;;1.10;1.10;;;24.40;49.30;;;;;;5047329;28;20045;-48
2022/10/04 08:27:12;;;;;;;2.15;1.08;;;24.40;49.80;;;;;;5046732;28;20403;-47
2022/10/04 08:30:00;;;;;;;1.50;1.40;;;24.40;50.10;;;;;;5039441;28;20041;-45
2022/10/04 08:33:00;;;;;;;1.80;1.70;;;24.40;50.50;;;;;;5046892;28;20044;-47
2022/10/04 08:35:35;;;;;;;4.13;1.73;;;24.50;50.40;;;;;;5045947;28;20045;-46
2022/10/04 08:38:35;;;;;;;3.25;0.90;;;24.50;50.60;;;;;;5056577;28;20049;-46
2022/10/04 08:41:45;;;;;;;3.47;1.20;;;24.60;50.40;;;;;;5057734;28;20047;-48
2022/10/04 08:44:55;;;;;;;2.47;1.98;;;24.70;50.10;;;;;;5054494;28;20083;-47
2022/10/04 08:47:51;;;;;;;1.90;1.73;;;24.80;49.90;;;;;;4998564;28;20764;-59
2022/10/04 08:51:03;;;;;;;1.10;1.05;;;24.90;49.60;;;;;;4987717;28;20049;-58
2022/10/04 08:54:06;;;;;;;5.18;1.90;;;25.10;49.20;;;;;;5000979;28;20556;-59
2022/10/04 08:56:56;;;;;;;1.67;1.42;;;25.10;48.90;;;;;;4999391;28;20132;-59
2022/10/04 08:59:56;;;;;;;2.95;1.60;;;25.10;48.60;;;;;;4997353;28;20046;-59
2022/10/04 09:03:05;;;;;;;1.88;1.25;;;25.10;48.40;;;;;;4943667;29;20047;-56
2022/10/04 09:05:53;;;;;;;1.95;1.40;;;25.10;48.60;;;;;;4935050;29;20052;-55
2022/10/04 09:09:09;;;;;;;2.90;1.42;;;25.00;48.30;;;;;;4934638;28;20054;-55
2022/10/04 09:11:59;;;;;;;3.10;1.45;;;25.10;48.30;;;;;;4936766;28;20646;-54
2022/10/04 09:15:00;;;;;;;3.13;2.83;;;25.10;48.40;;;;;;4928754;29;20079;-53
2022/10/04 09:17:38;;;;;;;6.60;1.95;;;25.10;48.30;;;;;;4941610;29;20137;-55
2022/10/04 09:20:21;;;;;;;4.75;1.60;;;25.00;48.20;;;;;;4946822;28;20051;-54
2022/10/04 09:22:56;;;;;;;1.73;1.63;;;25.00;48.10;;;;;;4938624;28;20056;-56
2022/10/04 09:25:49;;;;;;;4.97;2.05;;;25.00;48.00;;;;;;5000877;28;20054;-56
2022/10/04 09:28:44;;;;;;;7.07;2.08;;;24.90;47.90;;;;;;5005562;28;20181;-55
2022/10/04 09:31:33;;;;;;;3.15;1.63;;;24.90;47.70;;;;;;4984874;28;20501;-54
2022/10/04 09:34:22;;;;;;;2.15;1.98;;;24.90;47.80;;;;;;5010212;28;20853;-54
2022/10/04 09:37:16;;;;;;;3.72;2.70;;;24.90;47.70;;;;;;5024411;28;20172;-54
2022/10/04 09:40:13;;;;;;;2.22;1.63;;;24.90;47.60;;;;;;5038444;28;20139;-52
2022/10/04 09:42:53;;;;;;;4.03;2.67;;;24.80;47.60;;;;;;5067491;28;20762;-55
2022/10/04 09:45:55;;;;;;;2.40;1.48;;;24.80;47.40;;;;;;5065891;28;20067;-54
2022/10/04 09:48:36;;;;;;;5.22;2.22;;;24.70;47.70;;;;;;5066169;28;20060;-54
2022/10/04 09:51:18;;;;;;;2.42;2.05;;;24.70;47.70;;;;;;5047701;28;20071;-54
2022/10/04 09:53:58;;;;;;;2.28;2.15;;;24.60;47.60;;;;;;5067707;28;20040;-52
2022/10/04 09:56:52;;;;;;;5.70;2.60;;;24.60;47.50;;;;;;5046132;28;20073;-52
2022/10/04 09:59:51;;;;;;;2.20;1.95;;;24.60;47.60;;;;;;5055310;28;20447;-54
2022/10/04 10:03:02;;;;;;;1.77;1.50;;;24.60;47.80;;;;;;5048488;28;20044;-53
2022/10/04 10:05:49;;;;;;;5.28;2.95;;;24.50;47.60;;;;;;5066874;28;20133;-54
2022/10/04 10:08:25;;;;;;;2.17;2.05;;;24.50;47.80;;;;;;5070580;28;20055;-53
2022/10/04 10:14:34;;;;;;;3.08;2.28;;;24.40;47.80;;;;;;5064273;28;20525;-54
2022/10/04 10:17:13;;;;;;;5.15;2.78;;;24.40;47.80;;;;;;5008511;28;20486;-54
2022/10/04 10:20:22;;;;;;;3.00;2.80;;;24.30;47.70;;;;;;5005617;28;20056;-53
2022/10/04 10:23:25;;;;;;;3.22;1.77;;;24.40;47.60;;;;;;5005897;28;20042;-54
2022/10/04 10:26:23;;;;;;;5.20;2.22;;;24.30;47.80;;;;;;5022664;28;20053;-50
2022/10/04 10:29:18;;;;;;;3.58;2.28;;;24.30;48.20;;;;;;5026011;28;20049;-54
2022/10/04 10:31:59;;;;;;;1.98;1.88;;;24.30;48.30;;;;;;5012789;28;20076;-55
2022/10/04 10:34:44;;;;;;;2.65;1.48;;;24.30;48.60;;;;;;5018185;28;20502;-55
2022/10/04 10:37:17;;;;;;;2.67;1.85;;;24.30;48.80;;;;;;5027315;28;20107;-53
2022/10/04 10:40:15;;;;;;;3.17;1.65;;;24.30;49.00;;;;;;5027537;28;20045;-55
2022/10/04 10:43:14;;;;;;;1.67;1.45;;;24.30;49.10;;;;;;5027482;28;20052;-56
2022/10/04 10:45:51;;;;;;;1.63;1.42;;;24.30;49.30;;;;;;5027491;28;20056;-55
2022/10/04 10:48:33;;;;;;;2.15;1.55;;;24.20;49.40;;;;;;5009325;28;20041;-55
2022/10/04 10:51:14;;;;;;;1.85;1.23;;;24.30;49.40;;;;;;5030966;28;20059;-55
2022/10/04 10:54:21;;;;;;;2.20;1.38;;;24.30;49.40;;;;;;5055824;28;20079;-57
2022/10/04 10:57:06;;;;;;;0.90;0.90;;;24.30;49.50;;;;;;5047310;28;20091;-57
2022/10/04 11:00:09;;;;;;;0.98;0.80;;;24.30;49.70;;;;;;5048721;28;20060;-55
2022/10/04 11:03:10;;;;;;;2.58;1.23;;;24.30;49.70;;;;;;5068425;28;20131;-55
2022/10/04 11:06:12;;;;;;;3.42;1.63;;;24.40;49.90;;;;;;5046328;28;20053;-55
2022/10/04 11:09:18;;;;;;;3.90;0.93;;;24.30;50.60;;;;;;5045532;28;20516;-52
2022/10/04 11:12:20;;;;;;;3.10;1.10;;;24.30;49.90;;;;;;5052426;28;20394;-54
2022/10/04 11:15:26;;;;;;;3.85;1.42;;;24.30;50.00;;;;;;5046755;28;20131;-50
2022/10/04 11:18:19;;;;;;;1.80;0.63;;;24.40;50.10;;;;;;5049537;28;20037;-51
2022/10/04 11:21:26;;;;;;;2.58;1.25;;;24.40;50.20;;;;;;5047152;28;20068;-52
2022/10/04 11:24:27;;;;;;;2.92;1.17;;;24.40;50.20;;;;;;5047394;28;20041;-51
2022/10/04 11:27:34;;;;;;;1.48;0.90;;;24.40;50.20;;;;;;5060583;28;20581;-48
2022/10/04 11:30:14;;;;;;;2.42;1.42;;;24.50;50.40;;;;;;5044287;28;20080;-50
2022/10/04 11:33:18;;;;;;;4.50;1.42;;;24.40;50.50;;;;;;5049269;28;20098;-51
2022/10/04 11:36:04;;;;;;;9.88;1.40;;;24.50;50.30;;;;;;5045853;28;20051;-50
2022/10/04 11:39:15;;;;;;;2.13;0.75;;;24.50;50.20;;;;;;5067254;28;20064;-49
2022/10/04 11:41:51;;;;;;;5.43;1.27;;;24.50;50.20;;;;;;5068742;28;20033;-52
2022/10/04 11:44:36;;;;;;;5.95;1.42;;;24.50;50.20;;;;;;5068616;28;20067;-52
2022/10/04 11:47:08;;;;;;;1.50;0.85;;;24.60;50.10;;;;;;5068411;28;20127;-49
2022/10/04 11:49:55;;;;;;;6.78;1.20;;;24.60;50.00;;;;;;5068737;28;20040;-50
2022/10/04 11:53:05;;;;;;;1.88;0.90;;;24.60;50.00;;;;;;5060458;28;20072;-52
2022/10/04 11:56:04;;;;;;;4.13;1.05;;;24.60;50.00;;;;;;5046778;28;20112;-53
2022/10/04 11:58:42;;;;;;;6.43;1.85;;;24.70;50.10;;;;;;5042753;28;20067;-48
2022/10/04 12:01:42;;;;;;;3.83;2.35;;;24.70;48.20;;;;;;5054016;28;20124;-46
2022/10/04 12:04:52;;;;;;;3.70;2.03;;;24.70;47.10;;;;;;5062747;28;20505;-51
2022/10/04 12:07:33;;;;;;;3.58;2.40;;;24.70;46.40;;;;;;5058397;28;20049;-49
2022/10/04 12:10:17;;;;;;;3.35;1.73;;;24.70;45.90;;;;;;5049681;28;20578;-55
2022/10/04 12:13:21;;;;;;;2.38;1.17;;;24.70;45.50;;;;;;5058832;28;20045;-53
2022/10/04 12:16:28;;;;;;;2.72;0.90;;;24.70;45.20;;;;;;5046971;28;20126;-51
2022/10/04 12:19:39;;;;;;;2.60;1.02;;;24.80;45.30;;;;;;5059193;28;20127;-51
2022/10/04 12:22:39;;;;;;;4.10;1.27;;;24.80;45.30;;;;;;5033870;28;20049;-50
2022/10/04 12:25:46;;;;;;;5.93;2.65;;;24.80;45.20;;;;;;5016150;28;20050;-49
2022/10/04 12:28:28;;;;;;;;;;;24.80;45.10;;;;;;5007459;28;20128;-49
2022/10/04 12:31:15;;;;;;;5.35;1.15;;;24.80;44.90;;;;;;5006609;28;19921;-51
2022/10/04 12:33:49;;;;;;;4.25;1.80;;;24.90;44.60;;;;;;5004722;28;20498;-50
2022/10/04 12:36:30;;;;;;;1.35;0.52;;;24.90;44.40;;;;;;5021107;28;20099;-50
2022/10/04 12:39:15;;;;;;;5.70;0.85;;;24.90;44.50;;;;;;5009629;28;20076;-52
2022/10/04 12:41:53;;;;;;;3.28;0.98;;;25.00;44.30;;;;;;5004789;28;20138;-50
2022/10/04 12:44:32;;;;;;;0.85;0.80;;;25.10;44.60;;;;;;5006199;28;20042;-49
2022/10/04 12:47:29;;;;;;;4.15;0.85;;;25.10;44.70;;;;;;5005288;28;20049;-50
2022/10/04 12:50:06;;;;;;;1.05;1.02;;;25.20;44.60;;;;;;4998799;28;20053;-53
2022/10/04 12:52:44;;;;;;;2.55;0.85;;;25.30;44.50;;;;;;5000096;28;20074;-49
2022/10/04 12:55:21;;;;;;;0.98;0.40;;;25.40;44.50;;;;;;5011062;28;20751;-49
2022/10/04 12:57:57;;;;;;;4.03;1.33;;;25.40;44.50;;;;;;4992435;28;20042;-50
2022/10/04 13:00:28;;;;;;;1.63;1.00;;;25.50;45.10;;;;;;5022881;28;20036;-49
2022/10/04 13:03:18;;;;;;;4.53;0.50;;;25.50;44.50;;;;;;5050354;28;20084;-54
2022/10/04 13:06:01;;;;;;;1.15;0.25;;;25.70;44.40;;;;;;5046913;28;20048;-49
2022/10/04 13:08:57;;;;;;;1.67;0.85;;;25.70;44.00;;;;;;5055133;28;20038;-48
2022/10/04 13:11:40;;;;;;;6.33;1.83;;;25.90;44.10;;;;;;5043513;28;20497;-49
2022/10/04 13:14:28;;;;;;;0.88;0.60;;;26.00;44.00;;;;;;5050741;28;20068;-51
2022/10/04 13:17:02;;;;;;;1.45;0.32;;;26.10;43.80;;;;;;5038829;28;20049;-50
2022/10/04 13:19:35;;;;;;;0.50;0.32;;;26.20;43.90;;;;;;5045805;28;20039;-50
2022/10/04 13:22:19;;;;;;;1.98;0.22;;;26.30;43.70;;;;;;5042801;28;20592;-50
2022/10/04 13:25:00;;;;;;;1.75;0.10;;;26.50;42.90;;;;;;5047233;28;20041;-51
2022/10/04 13:27:37;;;;;;;3.45;0.50;;;26.60;42.20;;;;;;5052973;28;20072;-50
2022/10/04 13:30:19;;;;;;;0.68;0.25;;;26.70;41.70;;;;;;5068849;28;20064;-52
2022/10/04 13:32:55;;;;;;;1.00;0.35;;;26.80;41.80;;;;;;5057323;28;20606;-52
2022/10/04 13:35:27;;;;;;;1.40;0.10;;;26.90;41.10;;;;;;5052949;28;20130;-48
2022/10/04 13:38:22;;;;;;;0.82;0.10;;;27.00;41.10;;;;;;5068560;28;20508;-50
2022/10/04 13:40:59;;;;;;;0.85;0.10;;;27.10;40.70;;;;;;5052751;28;20199;-48
2022/10/04 13:44:01;;;;;;;0.68;0.10;;;27.20;40.50;;;;;;5049131;28;20041;-49
2022/10/04 13:46:38;;;;;;;0.43;0.10;;;27.40;40.40;;;;;;5028361;28;20057;-51
2022/10/04 13:49:23;;;;;;;0.47;0.10;;;27.40;40.30;;;;;;5042829;28;20231;-49
2022/10/04 13:57:55;;;;;;;6.30;0.50;;;27.80;40.20;;;;;;5019746;28;20042;-52
2022/10/04 14:00:39;;;;;;;2.08;0.10;;;27.90;40.20;;;;;;5037729;28;20666;-51
2022/10/04 14:03:23;;;;;;;1.48;0.10;;;28.00;39.50;;;;;;5036922;28;20049;-51
2022/10/04 14:06:27;;;;;;;3.28;0.20;;;28.20;39.10;;;;;;5026697;28;20505;-49
2022/10/04 14:09:26;;;;;;;4.88;0.13;;;28.40;38.80;;;;;;5028599;28;20072;-50
2022/10/04 14:12:38;;;;;;;10.73;0.20;;;28.60;38.70;;;;;;5027829;28;20053;-52
2022/10/04 14:15:49;;;;;;;0.40;0.30;;;28.70;38.30;;;;;;4937541;28;20063;-49